Time;durP1;ratioP1;P1;durP2;ratioP2;P2;SDS_P1;SDS_P2;PMS_P1;PMS_P2;Temp;Humidity;BMP_temperature;BMP_pressure;BME280_temperature;BME280_humidity;BME280_pressure;Samples;Min_cycle;Max_cycle;Signal;HPM_P1;HPM_P2
2023/12/21 10:40:29;;;;;;;6.80;1.50;;;;;;;;;;6186019;23;20021;-90
2023/12/21 10:43:00;;;;;;;3.90;0.77;;;;;;;;;;6184159;23;20020;-89
2023/12/21 10:45:28;;;;;;;5.05;0.90;;;;;;;;;;6184152;23;20013;-91
2023/12/21 10:48:02;;;;;;;6.20;1.15;;;;;;;;;;6157777;23;20486;-90
2023/12/21 10:51:22;;;;;;;7.32;1.05;;;;;;;;;;6159707;23;20005;-92
2023/12/21 10:53:54;;;;;;;3.72;0.80;;;;;;;;;;6157151;23;20005;-92
2023/12/21 10:56:21;;;;;;;2.95;0.80;;;;;;;;;;6159093;23;20140;-92
2023/12/21 10:58:48;;;;;;;6.22;1.15;;;;;;;;;;6159315;23;20004;-93
2023/12/21 11:01:15;;;;;;;3.53;1.00;;;;;;;;;;6159350;23;20347;-93
2023/12/21 11:03:42;;;;;;;7.78;1.30;;;;;;;;;;6184613;23;20016;-93
2023/12/21 11:06:41;;;;;;;5.40;1.23;;;;;;;;;;6159614;23;20036;-92
2023/12/21 11:09:35;;;;;;;7.65;0.93;;;;;;;;;;6154729;23;20438;-93
2023/12/21 11:16:16;;;;;;;6.85;1.00;;;;;;;;;;6185057;23;20005;-93
2023/12/21 11:18:44;;;;;;;5.93;0.93;;;;;;;;;;6146466;23;20013;-93
2023/12/21 11:21:14;;;;;;;5.93;1.05;;;;;;;;;;6159183;23;20009;-93
2023/12/21 11:23:42;;;;;;;5.65;1.00;;;;;;;;;;6158665;23;20015;-93
2023/12/21 11:26:10;;;;;;;3.88;0.90;;;;;;;;;;6159148;23;20067;-93
2023/12/21 11:32:06;;;;;;;6.35;1.70;;;;;;;;;;6184963;23;20063;-93
2023/12/21 11:35:00;;;;;;;4.80;0.88;;;;;;;;;;6159636;23;20028;-95
2023/12/21 20:18:27;;;;;;;8.80;1.63;;;;;;;;;;6169452;23;20017;-86
2023/12/21 20:20:55;;;;;;;12.13;1.88;;;;;;;;;;6166051;23;20016;-87
2023/12/21 20:23:20;;;;;;;13.43;1.85;;;;;;;;;;6166450;23;20008;-86
2023/12/21 20:25:47;;;;;;;11.35;1.85;;;;;;;;;;6168530;23;20020;-86
2023/12/21 20:28:13;;;;;;;14.43;1.60;;;;;;;;;;6169893;23;20005;-87
2023/12/21 20:30:39;;;;;;;9.10;1.40;;;;;;;;;;6164372;23;20005;-88
2023/12/21 20:33:04;;;;;;;14.07;1.73;;;;;;;;;;6165835;23;20024;-87
2023/12/21 20:35:30;;;;;;;12.00;1.63;;;;;;;;;;6169289;23;20012;-89
2023/12/21 20:37:56;;;;;;;15.43;1.95;;;;;;;;;;6169691;23;20008;-87
2023/12/21 20:40:21;;;;;;;12.73;2.03;;;;;;;;;;6166190;23;20040;-87
2023/12/21 20:42:46;;;;;;;13.20;1.70;;;;;;;;;;6165621;23;20209;-87
2023/12/21 20:45:13;;;;;;;11.07;1.80;;;;;;;;;;6168207;23;20092;-87
2023/12/21 20:47:38;;;;;;;10.98;1.58;;;;;;;;;;6169096;23;20032;-87
2023/12/21 20:50:05;;;;;;;10.25;1.33;;;;;;;;;;6167637;23;20477;-87
2023/12/21 20:52:31;;;;;;;9.30;1.45;;;;;;;;;;6165553;23;20500;-87
2023/12/21 20:54:57;;;;;;;10.68;1.80;;;;;;;;;;6167514;23;20036;-87
2023/12/21 20:57:22;;;;;;;9.80;1.45;;;;;;;;;;6169568;23;20013;-87
2023/12/21 20:59:48;;;;;;;10.32;1.55;;;;;;;;;;6169854;23;20036;-87
2023/12/21 21:02:13;;;;;;;8.15;1.50;;;;;;;;;;6166172;23;20017;-86
2023/12/21 21:04:41;;;;;;;10.25;1.15;;;;;;;;;;6140628;23;20021;-87
2023/12/21 21:07:07;;;;;;;11.15;1.45;;;;;;;;;;6166986;23;20760;-87
2023/12/21 21:09:33;;;;;;;7.43;1.40;;;;;;;;;;6169149;23;20012;-87
2023/12/21 21:11:59;;;;;;;10.18;1.55;;;;;;;;;;6166122;23;20063;-87
2023/12/21 21:14:24;;;;;;;8.95;1.30;;;;;;;;;;6166620;23;20023;-87
2023/12/21 21:16:51;;;;;;;12.70;1.77;;;;;;;;;;6168188;23;20009;-88
2023/12/21 21:19:17;;;;;;;13.23;2.25;;;;;;;;;;6168207;23;20107;-88
2023/12/21 21:21:45;;;;;;;9.85;2.00;;;;;;;;;;6165247;23;20029;-87
2023/12/21 21:24:11;;;;;;;7.53;1.15;;;;;;;;;;6167398;23;20590;-87
2023/12/21 21:26:36;;;;;;;9.88;2.10;;;;;;;;;;6166088;23;20028;-86
2023/12/21 21:29:02;;;;;;;12.82;2.22;;;;;;;;;;6169005;23;20036;-87
2023/12/21 21:31:28;;;;;;;11.10;1.80;;;;;;;;;;6165369;23;20013;-87
2023/12/21 21:33:54;;;;;;;12.57;2.10;;;;;;;;;;6168173;23;20011;-89
2023/12/21 21:36:20;;;;;;;8.88;1.52;;;;;;;;;;6166081;23;20024;-88
2023/12/21 21:38:45;;;;;;;11.75;1.80;;;;;;;;;;6163136;23;20397;-87
2023/12/21 21:41:18;;;;;;;11.07;1.40;;;;;;;;;;6166478;23;20068;-88
2023/12/21 21:43:44;;;;;;;9.30;1.10;;;;;;;;;;6168064;23;20008;-86
2023/12/21 21:46:10;;;;;;;8.45;1.17;;;;;;;;;;6169784;23;20020;-87
2023/12/21 21:48:37;;;;;;;9.55;1.70;;;;;;;;;;6163278;23;20013;-86
2023/12/21 21:51:04;;;;;;;9.50;1.27;;;;;;;;;;6166837;23;20362;-87
2023/12/21 21:53:29;;;;;;;6.95;1.08;;;;;;;;;;6168425;23;20016;-87
2023/12/21 21:55:55;;;;;;;7.15;1.20;;;;;;;;;;6171408;23;20691;-87
2023/12/21 21:58:20;;;;;;;11.95;1.88;;;;;;;;;;6169740;23;20712;-86
2023/12/21 22:00:46;;;;;;;4.97;0.98;;;;;;;;;;6165807;23;20009;-87
2023/12/21 22:03:11;;;;;;;6.45;1.30;;;;;;;;;;6168622;23;20706;-87
2023/12/21 22:05:37;;;;;;;6.57;0.93;;;;;;;;;;6170444;23;20005;-87
2023/12/21 22:08:03;;;;;;;4.00;0.60;;;;;;;;;;6171228;23;20662;-89
2023/12/21 22:10:29;;;;;;;6.15;0.90;;;;;;;;;;6165717;23;20017;-87
2023/12/21 22:12:54;;;;;;;3.92;0.68;;;;;;;;;;6166141;23;20841;-87
2023/12/21 22:15:19;;;;;;;5.85;0.80;;;;;;;;;;6144569;23;20009;-89
2023/12/21 22:17:45;;;;;;;2.35;0.82;;;;;;;;;;6170638;23;20012;-88
2023/12/21 22:20:12;;;;;;;7.68;1.10;;;;;;;;;;6141249;23;20457;-88
2023/12/21 22:22:37;;;;;;;1.92;0.50;;;;;;;;;;6166524;23;20013;-87
2023/12/21 22:25:04;;;;;;;5.30;0.80;;;;;;;;;;6168932;23;20538;-87
2023/12/21 22:27:29;;;;;;;4.63;1.02;;;;;;;;;;6170175;23;20008;-87
2023/12/21 22:29:55;;;;;;;3.97;0.60;;;;;;;;;;6168825;23;20606;-87
2023/12/21 22:32:20;;;;;;;4.30;0.73;;;;;;;;;;6165391;23;20085;-87
2023/12/21 22:34:46;;;;;;;4.97;0.63;;;;;;;;;;6168616;23;20079;-88
2023/12/21 22:37:11;;;;;;;7.03;0.80;;;;;;;;;;6169861;23;20245;-87
2023/12/21 22:39:37;;;;;;;4.80;0.63;;;;;;;;;;6144358;23;20037;-87
2023/12/21 22:42:03;;;;;;;5.45;0.52;;;;;;;;;;6168285;23;20116;-87
2023/12/21 22:44:29;;;;;;;3.63;0.68;;;;;;;;;;6173173;23;20319;-88
2023/12/21 22:46:55;;;;;;;5.53;0.93;;;;;;;;;;6173565;23;20016;-88
2023/12/21 22:49:23;;;;;;;7.07;1.35;;;;;;;;;;6172395;23;20028;-87
2023/12/21 22:51:49;;;;;;;6.20;1.08;;;;;;;;;;6168795;23;20681;-87
2023/12/21 22:54:15;;;;;;;6.68;0.90;;;;;;;;;;6171369;23;20023;-87
2023/12/21 22:56:41;;;;;;;8.00;1.20;;;;;;;;;;6172447;23;20614;-87
2023/12/21 22:59:07;;;;;;;4.80;0.75;;;;;;;;;;6172137;23;20092;-85
2023/12/21 23:01:32;;;;;;;5.03;0.80;;;;;;;;;;6170184;23;20087;-87
2023/12/21 23:03:58;;;;;;;4.78;0.75;;;;;;;;;;6170834;23;20019;-87
2023/12/21 23:06:23;;;;;;;8.70;1.38;;;;;;;;;;6171112;23;20064;-87
2023/12/21 23:08:49;;;;;;;8.13;1.00;;;;;;;;;;6172452;23;20005;-87
2023/12/21 23:11:14;;;;;;;9.02;1.27;;;;;;;;;;6170465;23;20043;-87
2023/12/21 23:13:40;;;;;;;7.45;1.45;;;;;;;;;;6171408;23;20095;-87
2023/12/21 23:16:06;;;;;;;9.63;1.45;;;;;;;;;;6172090;23;20618;-87
2023/12/21 23:18:32;;;;;;;6.85;0.90;;;;;;;;;;6173101;23;20092;-87
2023/12/21 23:20:58;;;;;;;6.47;0.75;;;;;;;;;;6170793;23;20004;-87
2023/12/21 23:23:23;;;;;;;6.88;0.90;;;;;;;;;;6170995;23;20123;-87
2023/12/21 23:25:49;;;;;;;6.88;1.30;;;;;;;;;;6171453;23;20613;-87
2023/12/21 23:28:14;;;;;;;9.85;1.63;;;;;;;;;;6173761;23;20096;-87
2023/12/21 23:30:40;;;;;;;9.32;1.65;;;;;;;;;;6175125;23;20008;-87
2023/12/21 23:33:05;;;;;;;7.93;1.05;;;;;;;;;;6178343;23;20000;-84
2023/12/21 23:35:31;;;;;;;8.90;1.08;;;;;;;;;;6181752;23;20325;-85
2023/12/21 23:37:56;;;;;;;12.68;1.40;;;;;;;;;;6182320;23;20016;-85
2023/12/21 23:40:22;;;;;;;5.28;1.05;;;;;;;;;;6183032;23;20314;-85
2023/12/21 23:42:47;;;;;;;11.07;1.38;;;;;;;;;;6183045;23;20040;-85
2023/12/21 23:45:13;;;;;;;10.52;1.40;;;;;;;;;;6183113;23;20008;-85
2023/12/21 23:47:38;;;;;;;7.78;1.25;;;;;;;;;;6182233;23;20000;-86
2023/12/21 23:50:04;;;;;;;7.50;1.25;;;;;;;;;;6183045;23;20341;-86
2023/12/21 23:52:31;;;;;;;6.93;1.10;;;;;;;;;;6159333;23;20005;-85
2023/12/21 23:54:57;;;;;;;6.50;1.17;;;;;;;;;;6184269;23;20009;-85
2023/12/21 23:57:22;;;;;;;5.22;0.88;;;;;;;;;;6184436;23;20013;-85
2023/12/21 23:59:47;;;;;;;6.20;1.02;;;;;;;;;;6183111;23;20001;-85
